Time;durP1;ratioP1;P1;durP2;ratioP2;P2;SDS_P1;SDS_P2;PMS_P1;PMS_P2;Temp;Humidity;BMP_temperature;BMP_pressure;BME280_temperature;BME280_humidity;BME280_pressure;Samples;Min_cycle;Max_cycle;Signal;HPM_P1;HPM_P2
2023/07/22 00:01:14;;;;;;;14.93;10.97;;;13.60;99.90;;;;;;4993448;28;20417;-50
2023/07/22 00:03:39;;;;;;;13.67;10.40;;;13.60;99.90;;;;;;4993480;28;20205;-50
2023/07/22 00:06:09;;;;;;;14.37;10.50;;;13.50;99.90;;;;;;4993551;28;20185;-49
2023/07/22 00:08:36;;;;;;;17.67;11.67;;;13.50;99.90;;;;;;4993610;28;20215;-50
2023/07/22 00:11:03;;;;;;;17.00;11.30;;;13.50;99.90;;;;;;4993590;28;20425;-50
2023/07/22 00:13:28;;;;;;;19.80;10.13;;;13.50;99.90;;;;;;4993337;28;20496;-51
2023/07/22 00:15:55;;;;;;;20.10;11.13;;;13.50;99.90;;;;;;4993881;28;20421;-50
2023/07/22 00:18:21;;;;;;;23.50;11.00;;;13.50;99.90;;;;;;4993466;28;20193;-49
2023/07/22 00:20:46;;;;;;;17.27;10.53;;;13.50;99.90;;;;;;4993675;28;20421;-50
2023/07/22 00:23:12;;;;;;;16.27;11.50;;;13.50;99.90;;;;;;4993271;28;20656;-48
2023/07/22 00:25:37;;;;;;;18.00;11.43;;;13.50;99.90;;;;;;4993232;28;20595;-50
2023/07/22 00:28:06;;;;;;;19.93;11.70;;;13.40;99.90;;;;;;4992465;28;20219;-48
2023/07/22 00:30:31;;;;;;;15.77;11.80;;;13.50;99.90;;;;;;4993063;28;20222;-49
2023/07/22 00:32:57;;;;;;;16.90;11.27;;;13.40;99.90;;;;;;4992963;28;20535;-50
2023/07/22 00:35:22;;;;;;;17.77;10.83;;;13.40;99.90;;;;;;4993045;28;20187;-50
2023/07/22 00:37:48;;;;;;;20.80;11.67;;;13.40;99.90;;;;;;4992842;28;20189;-50
2023/07/22 00:40:14;;;;;;;18.77;11.37;;;13.40;99.90;;;;;;4992886;28;20533;-50
2023/07/22 00:42:40;;;;;;;17.43;10.50;;;13.50;99.90;;;;;;4993422;28;20178;-50
2023/07/22 00:45:07;;;;;;;22.20;11.13;;;13.40;99.90;;;;;;4992691;28;20935;-48
2023/07/22 00:47:34;;;;;;;17.23;11.27;;;13.40;99.90;;;;;;4993073;28;20205;-51
2023/07/22 00:50:02;;;;;;;19.13;11.40;;;13.40;99.90;;;;;;4992738;28;20418;-49
2023/07/22 00:52:28;;;;;;;17.57;11.60;;;13.30;99.90;;;;;;4992551;28;20940;-49
2023/07/22 00:54:55;;;;;;;19.20;12.60;;;13.40;99.90;;;;;;4992792;28;20508;-50
2023/07/22 00:57:21;;;;;;;20.77;12.40;;;13.40;99.90;;;;;;4992652;28;20424;-48
2023/07/22 00:59:46;;;;;;;22.67;12.00;;;13.40;99.90;;;;;;4992818;28;20535;-49
2023/07/22 01:02:12;;;;;;;15.30;11.27;;;13.40;99.90;;;;;;4992456;28;20793;-49
2023/07/22 01:04:38;;;;;;;23.97;12.07;;;13.30;99.90;;;;;;4992648;28;20607;-49
2023/07/22 01:07:08;;;;;;;17.60;11.03;;;13.30;99.90;;;;;;4992427;28;20550;-50
2023/07/22 01:09:40;;;;;;;20.03;11.83;;;13.30;99.90;;;;;;4992725;28;20182;-50
2023/07/22 01:12:07;;;;;;;22.50;12.33;;;13.30;99.90;;;;;;4992695;28;20803;-50
2023/07/22 01:14:37;;;;;;;20.07;11.00;;;13.20;99.90;;;;;;4992074;28;20462;-47
2023/07/22 01:17:05;;;;;;;16.57;10.77;;;13.10;99.90;;;;;;4992420;28;20418;-50
2023/07/22 01:19:30;;;;;;;22.33;12.53;;;13.10;99.90;;;;;;4992399;28;20410;-49
2023/07/22 01:22:07;;;;;;;18.10;11.80;;;13.10;99.90;;;;;;4992291;28;20924;-50
2023/07/22 01:24:33;;;;;;;22.60;11.67;;;13.00;99.90;;;;;;4992506;28;20486;-50
2023/07/22 01:26:58;;;;;;;29.63;17.90;;;13.10;99.90;;;;;;4992156;28;20465;-49
2023/07/22 01:29:25;;;;;;;21.47;12.63;;;13.10;99.90;;;;;;4992579;28;20204;-49
2023/07/22 01:31:53;;;;;;;21.33;12.90;;;13.10;99.90;;;;;;4992201;28;20185;-50
2023/07/22 01:34:19;;;;;;;20.70;12.37;;;13.10;99.90;;;;;;4991909;28;20952;-48
2023/07/22 01:36:47;;;;;;;19.57;11.00;;;13.00;99.90;;;;;;4992463;28;20421;-50
2023/07/22 01:39:13;;;;;;;21.50;11.50;;;13.00;99.90;;;;;;4991660;28;20421;-48
2023/07/22 01:41:39;;;;;;;18.50;11.43;;;13.00;99.90;;;;;;4992116;28;20420;-48
2023/07/22 01:44:05;;;;;;;17.83;10.90;;;13.00;99.90;;;;;;4992045;28;20422;-48
2023/07/22 01:46:30;;;;;;;19.30;11.50;;;13.00;99.90;;;;;;4992142;28;20216;-49
2023/07/22 01:48:56;;;;;;;18.67;10.83;;;13.00;99.90;;;;;;4992185;28;20190;-49
2023/07/22 01:51:22;;;;;;;17.23;10.17;;;12.90;99.90;;;;;;4992255;28;20182;-50
2023/07/22 01:53:48;;;;;;;15.70;10.63;;;12.90;99.90;;;;;;4991653;28;20253;-49
2023/07/22 01:56:13;;;;;;;23.80;12.00;;;12.80;99.90;;;;;;4991828;28;20226;-49
2023/07/22 01:58:39;;;;;;;23.03;11.27;;;12.80;99.90;;;;;;4991986;28;20763;-49
2023/07/22 02:01:05;;;;;;;18.43;10.77;;;12.80;99.90;;;;;;4991807;28;20194;-49
2023/07/22 02:03:31;;;;;;;18.60;10.23;;;12.70;99.90;;;;;;4992000;28;20185;-49
2023/07/22 02:06:04;;;;;;;28.07;11.10;;;12.70;99.90;;;;;;4991576;28;20660;-49
2023/07/22 02:08:29;;;;;;;18.60;10.20;;;12.70;99.90;;;;;;4991873;28;20421;-48
2023/07/22 02:11:01;;;;;;;20.77;10.50;;;12.70;99.90;;;;;;4991312;28;20939;-48
2023/07/22 02:13:26;;;;;;;24.23;10.83;;;12.70;99.90;;;;;;4991680;28;20288;-48
2023/07/22 02:15:52;;;;;;;21.93;10.37;;;12.70;99.90;;;;;;4991772;28;20840;-47
2023/07/22 02:18:17;;;;;;;18.80;10.50;;;12.70;99.90;;;;;;4991749;28;20201;-49
2023/07/22 02:20:43;;;;;;;17.07;10.43;;;12.70;99.90;;;;;;4991726;28;20652;-48
2023/07/22 02:23:09;;;;;;;25.37;11.27;;;12.70;99.90;;;;;;4991415;28;20185;-49
2023/07/22 02:25:35;;;;;;;19.53;10.17;;;12.70;99.90;;;;;;4991137;28;20254;-48
2023/07/22 02:28:01;;;;;;;22.33;11.53;;;12.60;99.90;;;;;;4991365;28;20430;-49
2023/07/22 02:30:27;;;;;;;20.53;10.50;;;12.60;99.90;;;;;;4991247;28;20427;-48
2023/07/22 02:32:52;;;;;;;21.97;10.50;;;12.60;99.90;;;;;;4991453;28;20185;-48
2023/07/22 02:35:18;;;;;;;21.70;10.80;;;12.60;99.90;;;;;;4991762;28;20191;-48
2023/07/22 02:37:44;;;;;;;20.63;10.53;;;12.60;99.90;;;;;;4991614;28;20240;-47
2023/07/22 02:40:11;;;;;;;21.67;11.50;;;12.60;99.90;;;;;;4991648;28;20184;-48
2023/07/22 02:42:37;;;;;;;23.83;11.20;;;12.60;99.90;;;;;;4991526;28;20218;-48
2023/07/22 02:45:04;;;;;;;20.17;10.87;;;12.60;99.90;;;;;;4991509;28;20464;-49
2023/07/22 02:47:30;;;;;;;21.17;11.17;;;12.60;99.90;;;;;;4990902;28;20833;-49
2023/07/22 02:49:55;;;;;;;24.70;12.10;;;12.60;99.90;;;;;;4990926;28;20422;-48
2023/07/22 02:52:21;;;;;;;17.70;10.90;;;12.60;99.90;;;;;;4992778;28;20508;-49
2023/07/22 02:55:04;;;;;;;20.53;11.13;;;12.60;99.90;;;;;;4994344;28;20302;-48
2023/07/22 02:57:29;;;;;;;20.27;11.53;;;12.50;99.90;;;;;;4994954;28;20205;-48
2023/07/22 02:59:56;;;;;;;25.73;11.30;;;12.50;99.90;;;;;;4994452;28;20919;-48
2023/07/22 03:02:22;;;;;;;20.10;11.00;;;12.50;99.90;;;;;;4994383;28;20185;-48
2023/07/22 03:04:47;;;;;;;22.77;10.80;;;12.50;99.90;;;;;;4994549;28;20420;-48
2023/07/22 03:07:13;;;;;;;19.67;11.00;;;12.40;99.90;;;;;;4994594;28;20238;-48
2023/07/22 03:09:38;;;;;;;18.60;10.63;;;12.50;99.90;;;;;;4994335;28;20210;-48
2023/07/22 03:12:04;;;;;;;25.60;12.17;;;12.50;99.90;;;;;;4994240;28;20174;-48
2023/07/22 03:14:36;;;;;;;18.17;11.03;;;12.50;99.90;;;;;;4994428;28;20261;-48
2023/07/22 03:17:02;;;;;;;20.27;9.93;;;12.60;99.90;;;;;;4994132;28;20185;-48
2023/07/22 03:19:27;;;;;;;31.70;11.50;;;12.50;99.90;;;;;;4994449;28;20452;-48
2023/07/22 03:21:53;;;;;;;21.97;11.10;;;12.50;99.90;;;;;;4994194;28;20553;-48
2023/07/22 03:24:18;;;;;;;23.63;11.90;;;12.50;99.90;;;;;;4994261;28;20197;-48
2023/07/22 03:26:44;;;;;;;20.50;11.33;;;12.50;99.90;;;;;;4994433;28;20181;-49
2023/07/22 03:29:10;;;;;;;20.70;11.20;;;12.50;99.90;;;;;;4994182;28;20694;-48
2023/07/22 03:31:36;;;;;;;25.33;12.37;;;12.60;99.90;;;;;;4993986;28;20181;-49
2023/07/22 03:34:01;;;;;;;20.37;10.70;;;12.60;99.90;;;;;;4993916;28;20464;-49
2023/07/22 03:36:27;;;;;;;21.70;11.50;;;12.60;99.90;;;;;;4994149;28;20201;-49
2023/07/22 03:38:52;;;;;;;19.40;11.70;;;12.60;99.90;;;;;;4994191;28;20677;-49
2023/07/22 03:41:18;;;;;;;23.03;10.70;;;12.60;99.90;;;;;;4994025;28;20239;-49
2023/07/22 03:43:43;;;;;;;22.17;11.50;;;12.60;99.90;;;;;;4993679;28;20185;-48
2023/07/22 03:46:09;;;;;;;24.60;11.23;;;12.70;99.90;;;;;;4993887;28;20181;-49
2023/07/22 03:48:35;;;;;;;25.07;11.17;;;12.60;99.90;;;;;;4993795;28;20568;-49
2023/07/22 03:51:00;;;;;;;19.53;11.00;;;12.70;99.90;;;;;;4993352;28;20193;-50
2023/07/22 03:53:26;;;;;;;23.87;11.00;;;12.70;99.90;;;;;;4993271;28;20206;-49
2023/07/22 03:55:51;;;;;;;20.03;10.77;;;12.70;99.90;;;;;;4993475;28;20247;-49
2023/07/22 03:58:17;;;;;;;20.17;10.43;;;12.70;99.90;;;;;;4993606;28;20191;-49
2023/07/22 04:00:43;;;;;;;19.13;10.10;;;12.70;99.90;;;;;;4993451;28;20187;-48
2023/07/22 04:03:08;;;;;;;16.43;11.03;;;12.80;99.90;;;;;;4993428;28;20187;-49
2023/07/22 04:05:34;;;;;;;17.37;9.40;;;12.80;99.90;;;;;;4993520;28;20208;-49
2023/07/22 04:07:59;;;;;;;22.30;10.47;;;12.90;99.90;;;;;;4993126;28;20275;-49
2023/07/22 04:10:25;;;;;;;18.20;10.30;;;12.80;99.90;;;;;;4993200;28;20274;-49
2023/07/22 04:12:50;;;;;;;15.40;9.70;;;12.90;99.90;;;;;;4993014;28;20178;-49
2023/07/22 04:15:17;;;;;;;19.50;10.17;;;12.90;99.90;;;;;;4993051;28;20217;-49
2023/07/22 04:17:42;;;;;;;18.67;10.07;;;12.90;99.90;;;;;;4993589;28;20190;-49
2023/07/22 04:20:09;;;;;;;18.20;10.57;;;12.90;99.90;;;;;;4993184;28;20520;-50
2023/07/22 04:22:34;;;;;;;20.00;11.10;;;12.90;99.90;;;;;;4993455;28;20269;-49
2023/07/22 04:25:00;;;;;;;23.03;10.60;;;12.90;99.90;;;;;;4993011;28;20456;-49
2023/07/22 04:27:26;;;;;;;20.87;10.13;;;12.90;99.90;;;;;;4993478;28;20186;-48
2023/07/22 04:29:53;;;;;;;18.13;10.70;;;13.00;99.90;;;;;;4993611;28;20195;-50
2023/07/22 04:32:18;;;;;;;19.00;9.70;;;13.00;99.90;;;;;;4993260;28;20413;-49
2023/07/22 04:34:44;;;;;;;18.57;11.13;;;13.10;99.90;;;;;;4993356;28;20828;-49
2023/07/22 04:37:09;;;;;;;18.47;10.93;;;13.10;99.90;;;;;;4993167;28;20173;-50
2023/07/22 04:39:36;;;;;;;20.63;10.27;;;13.10;99.90;;;;;;4992826;28;20178;-48
2023/07/22 04:42:02;;;;;;;18.97;9.50;;;13.10;99.90;;;;;;4993072;28;20550;-48
2023/07/22 04:44:28;;;;;;;18.17;9.67;;;13.20;99.90;;;;;;4993078;28;20456;-49
2023/07/22 04:46:54;;;;;;;16.90;9.30;;;13.10;99.90;;;;;;4992972;28;20189;-49
2023/07/22 04:49:19;;;;;;;21.73;10.00;;;13.00;99.90;;;;;;4993082;28;20221;-49
2023/07/22 04:51:48;;;;;;;23.03;10.40;;;13.10;99.90;;;;;;4992778;28;20495;-48
2023/07/22 04:54:14;;;;;;;16.47;10.27;;;13.00;99.90;;;;;;4992560;28;20215;-49
2023/07/22 04:56:41;;;;;;;16.97;9.93;;;13.10;99.90;;;;;;4992766;28;20455;-49
2023/07/22 04:59:07;;;;;;;18.47;9.90;;;13.20;99.90;;;;;;4992310;28;20414;-50
2023/07/22 05:01:32;;;;;;;15.90;9.03;;;13.20;99.90;;;;;;4992889;28;20901;-48
2023/07/22 05:03:58;;;;;;;16.57;10.13;;;13.20;99.90;;;;;;4992692;28;20623;-49
2023/07/22 05:06:24;;;;;;;20.63;10.90;;;13.30;99.90;;;;;;4992703;28;20232;-48
2023/07/22 05:08:50;;;;;;;21.87;9.63;;;13.50;99.90;;;;;;4992387;28;20722;-48
2023/07/22 05:11:16;;;;;;;15.63;9.27;;;13.60;40.60;;;;;;4992795;28;20440;-49
2023/07/22 05:13:42;;;;;;;18.10;8.80;;;13.60;1.00;;;;;;4992476;28;20281;-49
2023/07/22 05:16:08;;;;;;;13.90;7.90;;;13.60;1.00;;;;;;4992286;28;20426;-49
2023/07/22 05:18:33;;;;;;;22.00;10.20;;;13.50;1.00;;;;;;4992609;28;20194;-49
2023/07/22 05:20:59;;;;;;;12.97;8.30;;;13.50;1.00;;;;;;4992060;28;20426;-49
2023/07/22 05:23:24;;;;;;;12.30;8.50;;;13.60;1.00;;;;;;4992706;28;20193;-50
2023/07/22 05:25:52;;;;;;;16.03;9.00;;;13.60;1.00;;;;;;4992065;28;20250;-50
2023/07/22 05:28:17;;;;;;;15.63;8.60;;;13.70;1.00;;;;;;4992496;28;20217;-49
2023/07/22 05:30:43;;;;;;;16.13;10.20;;;13.80;1.00;;;;;;4991914;28;20911;-49
2023/07/22 05:33:09;;;;;;;18.80;9.87;;;14.00;1.00;;;;;;4992149;28;20307;-50
2023/07/22 05:35:34;;;;;;;13.53;8.20;;;14.20;1.00;;;;;;4992288;28;20183;-50
2023/07/22 05:38:02;;;;;;;20.90;9.33;;;14.20;1.00;;;;;;4991962;28;20179;-50
2023/07/22 05:40:28;;;;;;;11.10;7.70;;;14.30;1.00;;;;;;4991870;28;20196;-49
2023/07/22 05:42:53;;;;;;;13.80;8.37;;;14.40;1.00;;;;;;4991968;28;20437;-51
2023/07/22 05:45:19;;;;;;;14.57;8.33;;;14.50;1.00;;;;;;4991834;28;20591;-50
2023/07/22 05:47:45;;;;;;;12.83;8.03;;;14.70;99.90;;;;;;4991961;28;20274;-51
2023/07/22 05:50:10;;;;;;;11.60;7.30;;;14.70;99.90;;;;;;4991768;28;20289;-50
2023/07/22 05:52:36;;;;;;;13.07;7.37;;;14.90;99.90;;;;;;4991571;28;20184;-50
2023/07/22 05:55:02;;;;;;;15.90;7.80;;;14.90;99.90;;;;;;4991800;28;20280;-50
2023/07/22 05:57:27;;;;;;;11.80;6.63;;;15.10;99.90;;;;;;4991720;28;20192;-51
2023/07/22 05:59:53;;;;;;;14.10;6.33;;;15.40;1.00;;;;;;4991881;28;20229;-51
2023/07/22 06:02:18;;;;;;;17.30;6.73;;;15.60;99.90;;;;;;4991789;28;20184;-50
2023/07/22 06:04:44;;;;;;;12.03;5.83;;;15.80;99.90;;;;;;4991827;28;20230;-51
2023/07/22 06:07:10;;;;;;;11.43;6.30;;;16.00;86.80;;;;;;4990263;28;20187;-51
2023/07/22 06:09:35;;;;;;;12.50;6.20;;;16.20;99.90;;;;;;4991861;28;20184;-51
2023/07/22 06:12:01;;;;;;;11.67;5.83;;;16.10;1.00;;;;;;4991638;28;20657;-50
2023/07/22 06:14:27;;;;;;;10.70;6.60;;;16.10;99.90;;;;;;4991601;28;20200;-48
2023/07/22 06:16:53;;;;;;;12.80;6.13;;;16.40;99.90;;;;;;4991820;28;20235;-50
2023/07/22 06:19:18;;;;;;;9.83;5.57;;;16.40;1.00;;;;;;4991542;28;20219;-51
2023/07/22 06:21:44;;;;;;;9.03;5.40;;;16.40;99.90;;;;;;4991698;28;20190;-51
2023/07/22 06:24:10;;;;;;;9.90;5.63;;;16.40;1.00;;;;;;4991504;28;20195;-50
2023/07/22 06:26:36;;;;;;;9.50;5.37;;;16.30;99.90;;;;;;4990118;28;20185;-51
2023/07/22 06:29:02;;;;;;;9.83;5.40;;;16.20;1.00;;;;;;4991810;28;20196;-50
2023/07/22 06:31:30;;;;;;;11.70;5.50;;;16.30;99.90;;;;;;4991563;28;20430;-51
2023/07/22 06:33:57;;;;;;;8.00;4.93;;;16.50;99.90;;;;;;4991288;28;20230;-51
2023/07/22 06:36:23;;;;;;;10.93;5.03;;;16.70;8.90;;;;;;4991664;28;20484;-50
2023/07/22 06:38:49;;;;;;;7.83;4.57;;;16.90;85.20;;;;;;4991371;28;20418;-51
2023/07/22 06:41:14;;;;;;;8.27;4.80;;;17.00;91.70;;;;;;4991102;28;20942;-50
2023/07/22 06:43:40;;;;;;;8.47;4.20;;;17.20;1.00;;;;;;4991349;28;20187;-51
2023/07/22 06:46:05;;;;;;;9.30;4.13;;;17.30;90.00;;;;;;4991272;28;20724;-50
2023/07/22 06:48:31;;;;;;;9.97;4.53;;;17.40;43.50;;;;;;4991432;28;20228;-51
2023/07/22 06:50:57;;;;;;;5.20;3.97;;;17.70;61.60;;;;;;4990950;28;20598;-51
2023/07/22 06:53:22;;;;;;;6.90;4.00;;;18.00;1.00;;;;;;4991081;28;20214;-50
2023/07/22 06:55:50;;;;;;;6.80;3.70;;;18.30;1.00;;;;;;4991113;28;20674;-50
2023/07/22 06:58:15;;;;;;;9.43;4.00;;;18.60;1.00;;;;;;4991232;28;20216;-50
2023/07/22 07:00:41;;;;;;;5.43;3.63;;;18.90;1.00;;;;;;4990829;28;20455;-51
2023/07/22 07:03:06;;;;;;;8.57;3.93;;;19.00;1.00;;;;;;4990820;28;20180;-51
2023/07/22 07:05:32;;;;;;;7.83;3.60;;;19.10;1.00;;;;;;4990760;28;20643;-48
2023/07/22 07:07:58;;;;;;;3.57;3.10;;;19.10;1.00;;;;;;5005712;28;20625;-49
2023/07/22 07:10:24;;;;;;;4.20;2.87;;;19.20;1.00;;;;;;4989803;28;20650;-50
2023/07/22 07:12:50;;;;;;;5.37;2.90;;;19.50;1.00;;;;;;4990412;28;20420;-50
2023/07/22 07:15:15;;;;;;;4.20;2.93;;;19.60;1.00;;;;;;4990921;28;20184;-49
2023/07/22 07:17:41;;;;;;;6.50;3.17;;;19.50;1.00;;;;;;4990642;28;20178;-48
2023/07/22 07:20:07;;;;;;;5.13;2.80;;;19.60;1.00;;;;;;4989444;28;20363;-48
2023/07/22 07:22:33;;;;;;;4.87;3.37;;;19.80;1.00;;;;;;4990732;28;20639;-49
2023/07/22 07:24:58;;;;;;;4.13;2.53;;;20.00;1.00;;;;;;4990879;28;20432;-50
2023/07/22 07:27:24;;;;;;;5.00;2.80;;;20.30;1.00;;;;;;4990727;28;20204;-50
2023/07/22 07:29:50;;;;;;;4.63;2.40;;;20.50;1.00;;;;;;4990933;28;20184;-50
2023/07/22 07:32:15;;;;;;;5.93;3.13;;;20.20;1.00;;;;;;4990808;28;20186;-50
2023/07/22 07:34:41;;;;;;;4.30;2.60;;;19.90;1.00;;;;;;4990268;28;20738;-50
2023/07/22 07:37:07;;;;;;;4.57;2.10;;;19.90;1.00;;;;;;4990248;28;20189;-50
2023/07/22 07:39:32;;;;;;;4.17;2.43;;;20.10;1.00;;;;;;4993812;28;20182;-50
2023/07/22 07:41:58;;;;;;;4.97;2.63;;;19.70;1.00;;;;;;4994011;28;20181;-50
2023/07/22 07:44:23;;;;;;;4.53;2.47;;;19.40;1.00;;;;;;4993772;28;20186;-50
2023/07/22 07:46:49;;;;;;;5.20;2.47;;;19.10;1.00;;;;;;4993545;28;20223;-50
2023/07/22 07:49:15;;;;;;;6.07;3.03;;;18.90;1.00;;;;;;4994131;28;20183;-50
2023/07/22 07:51:42;;;;;;;6.63;2.80;;;18.60;1.00;;;;;;4993878;28;20674;-50
2023/07/22 07:54:08;;;;;;;3.50;2.20;;;18.30;1.00;;;;;;4993592;28;20360;-51
2023/07/22 07:56:33;;;;;;;4.13;2.37;;;18.20;1.00;;;;;;4993823;28;20511;-51
2023/07/22 07:58:59;;;;;;;4.37;2.57;;;18.50;1.00;;;;;;4993252;28;20428;-50
2023/07/22 08:01:25;;;;;;;5.13;2.13;;;19.10;1.00;;;;;;4993403;28;20189;-52
2023/07/22 08:03:50;;;;;;;4.73;1.90;;;19.30;1.00;;;;;;4993339;28;20186;-54
2023/07/22 08:06:16;;;;;;;3.77;2.20;;;19.10;1.00;;;;;;4993445;28;20207;-53
2023/07/22 08:08:41;;;;;;;3.57;2.07;;;19.40;1.00;;;;;;4992750;28;20177;-53
2023/07/22 08:11:10;;;;;;;2.50;2.03;;;19.60;1.00;;;;;;4993690;28;20193;-52
2023/07/22 08:13:37;;;;;;;4.00;1.63;;;20.00;1.00;;;;;;4993231;28;20219;-53
2023/07/22 08:16:07;;;;;;;5.87;2.10;;;20.30;1.00;;;;;;4993567;28;20418;-53
2023/07/22 08:18:33;;;;;;;6.47;2.83;;;20.70;1.00;;;;;;4993067;28;20773;-52
2023/07/22 08:20:59;;;;;;;5.20;2.17;;;20.90;1.00;;;;;;4993265;28;20911;-53
2023/07/22 08:23:25;;;;;;;3.50;2.10;;;20.90;1.00;;;;;;4993020;28;20433;-54
2023/07/22 08:25:51;;;;;;;2.30;1.93;;;20.80;1.00;;;;;;4993104;28;20420;-53
2023/07/22 08:28:17;;;;;;;5.67;1.90;;;20.50;1.00;;;;;;4993017;28;20416;-52
2023/07/22 08:30:44;;;;;;;3.13;1.50;;;20.50;1.00;;;;;;4993174;28;20214;-53
2023/07/22 08:33:11;;;;;;;1.77;1.17;;;20.60;1.00;;;;;;4992990;28;20468;-53
2023/07/22 08:35:38;;;;;;;3.87;1.50;;;20.90;1.00;;;;;;4992986;28;20433;-53
2023/07/22 08:38:03;;;;;;;6.03;1.60;;;20.50;1.00;;;;;;4992698;28;20555;-54
2023/07/22 08:40:40;;;;;;;2.50;1.20;;;20.50;1.00;;;;;;4992037;28;20509;-53
2023/07/22 08:43:09;;;;;;;3.63;1.50;;;20.90;1.00;;;;;;4992428;28;20180;-53
2023/07/22 08:45:37;;;;;;;1.93;1.30;;;21.40;1.00;;;;;;4992171;28;20975;-54
2023/07/22 08:48:07;;;;;;;3.27;1.50;;;21.90;1.00;;;;;;4992456;28;20423;-54
2023/07/22 08:50:55;;;;;;;2.57;1.50;;;22.40;1.00;;;;;;4991867;28;20422;-53
2023/07/22 08:53:21;;;;;;;2.83;1.30;;;22.70;1.00;;;;;;4992624;28;20543;-53
2023/07/22 08:55:50;;;;;;;7.23;2.60;;;22.60;1.00;;;;;;4992716;28;20979;-53
2023/07/22 08:58:16;;;;;;;6.33;2.57;;;22.40;1.00;;;;;;4992475;28;20426;-52
2023/07/22 09:00:42;;;;;;;4.30;1.90;;;22.20;1.00;;;;;;4992433;28;20898;-52
2023/07/22 09:03:10;;;;;;;3.47;1.50;;;22.20;1.00;;;;;;4992125;28;20422;-53
2023/07/22 09:05:36;;;;;;;5.80;2.00;;;22.60;1.00;;;;;;4992275;28;20505;-53
2023/07/22 09:08:06;;;;;;;8.20;3.37;;;22.70;1.00;;;;;;4992499;28;20418;-53
2023/07/22 09:10:32;;;;;;;4.13;1.90;;;23.10;1.00;;;;;;4992281;28;20511;-51
2023/07/22 09:12:59;;;;;;;4.47;2.07;;;22.80;1.00;;;;;;4991969;28;20510;-52
2023/07/22 09:15:26;;;;;;;4.90;1.60;;;22.70;1.00;;;;;;4992063;28;20751;-53
2023/07/22 09:17:51;;;;;;;3.40;1.90;;;23.20;1.00;;;;;;4992292;28;20412;-53
2023/07/22 09:20:17;;;;;;;1.57;1.43;;;23.70;1.00;;;;;;4992131;28;20810;-52
2023/07/22 09:22:47;;;;;;;2.17;1.70;;;23.30;1.00;;;;;;4992316;28;20302;-52
2023/07/22 09:25:20;;;;;;;2.60;1.70;;;22.60;99.90;;;;;;4992648;28;20180;-52
2023/07/22 09:27:50;;;;;;;2.60;1.37;;;22.10;1.00;;;;;;4992164;28;20419;-53
2023/07/22 09:30:23;;;;;;;5.50;2.27;;;21.90;1.00;;;;;;4992457;28;20936;-52
2023/07/22 09:32:50;;;;;;;2.33;1.60;;;21.90;1.00;;;;;;4992124;28;20459;-52
2023/07/22 09:35:16;;;;;;;4.60;1.50;;;21.80;1.00;;;;;;4991898;28;20533;-52
2023/07/22 09:37:42;;;;;;;1.67;1.37;;;21.70;1.00;;;;;;4991966;28;20436;-52
2023/07/22 09:40:25;;;;;;;1.90;1.40;;;21.50;1.00;;;;;;4991989;28;20423;-52
2023/07/22 09:43:02;;;;;;;2.03;1.40;;;21.60;1.00;;;;;;4991736;28;20183;-52
2023/07/22 09:45:29;;;;;;;2.80;1.30;;;22.10;1.00;;;;;;4991607;28;20416;-53
2023/07/22 09:47:55;;;;;;;1.90;1.70;;;22.70;99.90;;;;;;4991724;28;20858;-52
2023/07/22 09:50:23;;;;;;;3.20;2.73;;;23.00;99.90;;;;;;4991712;28;20780;-52
2023/07/22 09:52:53;;;;;;;3.00;1.73;;;23.30;99.90;;;;;;4992025;28;20419;-52
2023/07/22 09:55:21;;;;;;;2.40;1.90;;;23.30;99.90;;;;;;4991830;28;20967;-51
2023/07/22 09:57:55;;;;;;;2.67;1.77;;;23.70;99.90;;;;;;4991576;28;20424;-51
2023/07/22 10:00:25;;;;;;;7.00;2.00;;;23.80;99.90;;;;;;4991713;28;20411;-51
2023/07/22 10:02:52;;;;;;;1.80;1.23;;;23.60;99.90;;;;;;4991400;28;20766;-51
2023/07/22 10:05:19;;;;;;;4.50;1.40;;;23.80;99.90;;;;;;4991529;28;20488;-51
2023/07/22 10:07:56;;;;;;;2.10;1.60;;;24.20;99.90;;;;;;4991685;28;20416;-51
2023/07/22 10:10:28;;;;;;;4.37;1.70;;;24.00;99.90;;;;;;4991614;28;20872;-51
2023/07/22 10:12:55;;;;;;;2.67;2.10;;;24.00;99.90;;;;;;4991675;28;20413;-51
2023/07/22 10:15:20;;;;;;;3.53;1.80;;;24.00;99.90;;;;;;4991814;28;20416;-52
2023/07/22 10:17:46;;;;;;;6.67;3.80;;;23.90;99.90;;;;;;4991250;28;20955;-51
2023/07/22 10:20:16;;;;;;;3.83;2.40;;;23.60;99.90;;;;;;4991164;28;20185;-52
2023/07/22 10:22:44;;;;;;;2.20;2.00;;;23.80;99.90;;;;;;4991197;28;20881;-51
2023/07/22 10:25:18;;;;;;;3.53;2.07;;;23.80;99.90;;;;;;4991216;28;20412;-52
2023/07/22 10:27:44;;;;;;;4.37;1.53;;;23.80;99.90;;;;;;4991522;28;20741;-52
2023/07/22 10:30:12;;;;;;;3.70;1.70;;;24.00;99.90;;;;;;4991310;28;20472;-51
2023/07/22 10:32:40;;;;;;;3.20;1.83;;;23.60;99.90;;;;;;4991361;28;20931;-52
2023/07/22 10:35:10;;;;;;;5.23;1.73;;;23.70;99.90;;;;;;4991100;28;20471;-52
2023/07/22 10:37:38;;;;;;;1.70;1.60;;;24.00;99.90;;;;;;4991416;28;20426;-52
2023/07/22 10:40:19;;;;;;;5.37;2.27;;;24.40;99.90;;;;;;4991365;28;20416;-52
2023/07/22 10:43:03;;;;;;;4.40;2.00;;;24.70;99.90;;;;;;4991041;28;20427;-52
2023/07/22 10:45:31;;;;;;;4.23;1.80;;;24.80;99.90;;;;;;4991233;28;20427;-52
2023/07/22 10:48:01;;;;;;;2.50;1.70;;;24.70;99.90;;;;;;4991050;28;20439;-52
2023/07/22 10:50:46;;;;;;;2.43;1.60;;;24.60;99.90;;;;;;4991319;28;20416;-51
2023/07/22 10:53:25;;;;;;;5.33;1.70;;;24.10;99.90;;;;;;4991192;28;20427;-52
2023/07/22 10:56:11;;;;;;;3.23;2.00;;;23.60;99.90;;;;;;4990744;28;20483;-51
2023/07/22 10:58:43;;;;;;;4.03;1.67;;;23.70;99.90;;;;;;4989421;28;20947;-50
2023/07/22 11:01:34;;;;;;;2.50;1.63;;;24.20;99.90;;;;;;4989725;28;20943;-51
2023/07/22 11:04:05;;;;;;;6.13;1.80;;;24.00;99.90;;;;;;4990862;28;20884;-51
2023/07/22 11:06:31;;;;;;;2.97;2.30;;;24.50;99.90;;;;;;4990064;28;20431;-49
2023/07/22 11:08:58;;;;;;;3.43;2.20;;;25.00;99.90;;;;;;4990189;28;20501;-51
2023/07/22 11:11:43;;;;;;;3.83;2.10;;;25.30;99.90;;;;;;4990668;28;20448;-51
2023/07/22 11:14:22;;;;;;;3.57;2.90;;;25.50;99.90;;;;;;4993655;28;20205;-51
2023/07/22 11:16:48;;;;;;;3.93;2.80;;;24.90;99.90;;;;;;4994318;28;20545;-50
2023/07/22 11:19:15;;;;;;;2.40;2.20;;;24.40;99.90;;;;;;4994091;28;20506;-51
2023/07/22 11:21:42;;;;;;;3.33;2.80;;;23.90;99.90;;;;;;4994049;28;20721;-50
2023/07/22 11:24:07;;;;;;;4.60;2.80;;;23.20;99.90;;;;;;4993577;28;20481;-52
2023/07/22 11:26:34;;;;;;;4.57;3.40;;;22.90;99.90;;;;;;4994154;28;20419;-51
2023/07/22 11:29:01;;;;;;;4.43;3.77;;;22.90;99.90;;;;;;4994210;28;20177;-51
2023/07/22 11:31:37;;;;;;;3.60;2.97;;;23.00;99.90;;;;;;4993978;28;20419;-52
2023/07/22 11:34:06;;;;;;;3.73;2.80;;;23.40;99.90;;;;;;4993345;28;20451;-51
2023/07/22 11:36:32;;;;;;;6.40;3.53;;;23.60;99.90;;;;;;4992385;28;20420;-50
2023/07/22 11:39:14;;;;;;;6.60;3.37;;;24.00;99.90;;;;;;4992078;28;20531;-51
2023/07/22 11:41:41;;;;;;;4.10;3.23;;;24.00;99.90;;;;;;4992615;28;20283;-49
2023/07/22 11:44:13;;;;;;;3.80;3.13;;;24.60;99.90;;;;;;4992227;28;20470;-49
2023/07/22 11:46:54;;;;;;;5.33;2.90;;;25.00;99.90;;;;;;4992493;28;20448;-49
2023/07/22 11:49:29;;;;;;;4.40;3.37;;;25.30;99.90;;;;;;4992528;28;20440;-49
2023/07/22 11:52:07;;;;;;;5.20;3.10;;;25.20;99.90;;;;;;4993788;28;20413;-49
2023/07/22 11:54:34;;;;;;;4.80;3.23;;;25.20;99.90;;;;;;4993289;28;20491;-49
2023/07/22 11:57:15;;;;;;;4.50;3.23;;;25.30;99.90;;;;;;4993264;28;20427;-49
2023/07/22 11:59:48;;;;;;;6.00;3.63;;;25.30;99.90;;;;;;4993248;28;20419;-49
2023/07/22 12:02:18;;;;;;;4.90;3.60;;;25.20;99.90;;;;;;4993580;28;20762;-49
2023/07/22 12:04:56;;;;;;;5.93;4.10;;;24.60;99.90;;;;;;4993173;28;20513;-49
2023/07/22 12:07:27;;;;;;;6.20;4.60;;;23.50;99.90;;;;;;4993369;28;20411;-51
2023/07/22 12:09:55;;;;;;;5.37;3.20;;;23.00;99.90;;;;;;4993426;28;20416;-48
2023/07/22 12:12:20;;;;;;;5.87;4.10;;;23.10;99.90;;;;;;4993596;28;20423;-52
2023/07/22 12:14:46;;;;;;;5.53;4.37;;;23.70;99.90;;;;;;4993198;28;20459;-49
2023/07/22 12:17:12;;;;;;;5.60;3.87;;;24.60;99.90;;;;;;4992770;28;20665;-50
2023/07/22 12:19:37;;;;;;;7.73;3.87;;;25.10;99.90;;;;;;4992927;28;20215;-49
2023/07/22 12:22:03;;;;;;;5.37;4.00;;;25.20;99.90;;;;;;4992973;28;20188;-50
2023/07/22 12:24:30;;;;;;;9.60;4.10;;;24.40;99.90;;;;;;4991562;28;20216;-49
2023/07/22 12:26:55;;;;;;;5.70;4.40;;;23.60;99.90;;;;;;4993220;28;20250;-49
2023/07/22 12:29:22;;;;;;;7.33;4.53;;;22.70;99.90;;;;;;4992777;28;20414;-49
2023/07/22 12:31:48;;;;;;;5.33;4.40;;;21.80;99.90;;;;;;4993161;28;20192;-48
2023/07/22 12:34:13;;;;;;;5.07;4.17;;;21.40;99.90;;;;;;4992595;28;20950;-50
2023/07/22 12:36:39;;;;;;;6.43;5.00;;;21.10;99.90;;;;;;4992237;28;20227;-50
2023/07/22 12:39:05;;;;;;;7.27;4.87;;;20.80;99.90;;;;;;4992960;28;20598;-52
2023/07/22 12:41:30;;;;;;;6.37;4.90;;;20.50;99.90;;;;;;4992634;28;20453;-51